createdAt,value
2019-03-26T00:01:59.319Z,90.60
2019-03-26T00:04:29.503Z,90.60
2019-03-26T00:06:59.908Z,90.60
2019-03-26T00:09:31.329Z,90.60
2019-03-26T00:12:01.474Z,90.70
2019-03-26T00:14:33.129Z,90.50
2019-03-26T00:17:03.453Z,91.00
2019-03-26T00:19:33.876Z,90.70
2019-03-26T00:22:04.012Z,90.70
2019-03-26T00:24:34.582Z,90.80
2019-03-26T00:27:07.677Z,90.50
2019-03-26T00:29:37.176Z,90.80
2019-03-26T00:32:07.382Z,90.80
2019-03-26T00:34:37.882Z,90.50
2019-03-26T00:37:08.137Z,90.60
2019-03-26T00:39:38.580Z,90.60
2019-03-26T00:42:08.710Z,90.80
2019-03-26T00:44:39.173Z,90.70
2019-03-26T00:47:09.290Z,90.60
2019-03-26T00:49:39.599Z,90.80
2019-03-26T00:52:09.851Z,90.70
2019-03-26T00:54:41.192Z,90.80
2019-03-26T00:57:11.404Z,90.70
2019-03-26T00:59:41.808Z,91.00
2019-03-26T01:02:13.468Z,91.00
2019-03-26T01:04:43.949Z,91.00
2019-03-26T01:07:14.344Z,91.20
2019-03-26T01:09:44.973Z,91.40
2019-03-26T01:12:15.300Z,91.30
2019-03-26T01:14:45.880Z,91.60
2019-03-26T01:17:16.360Z,91.80
2019-03-26T01:19:46.415Z,92.30
2019-03-26T01:22:16.675Z,92.60
2019-03-26T01:24:47.234Z,92.70
2019-03-26T01:27:17.505Z,92.60
2019-03-26T01:29:48.010Z,92.30
2019-03-26T01:32:18.269Z,92.30
2019-03-26T01:34:48.931Z,92.20
2019-03-26T01:37:19.482Z,92.20
2019-03-26T01:39:49.865Z,92.00
2019-03-26T01:42:20.220Z,91.90
2019-03-26T01:44:50.984Z,91.60
2019-03-26T01:47:21.253Z,91.90
2019-03-26T01:49:51.374Z,92.00
2019-03-26T01:52:21.637Z,92.10
2019-03-26T01:54:52.402Z,92.20
2019-03-26T01:57:22.811Z,92.50
2019-03-26T01:59:54.825Z,92.40
2019-03-26T02:02:25.176Z,92.20
2019-03-26T02:05:00.254Z,92.20
2019-03-26T02:07:27.448Z,92.20
2019-03-26T02:09:57.645Z,92.10
2019-03-26T02:12:27.926Z,92.20
2019-03-26T02:14:58.071Z,92.20
2019-03-26T02:17:28.208Z,92.30
2019-03-26T02:19:59.180Z,92.30
2019-03-26T02:22:29.295Z,92.30
2019-03-26T02:24:59.647Z,92.30
2019-03-26T02:27:31.536Z,92.30
2019-03-26T02:30:01.802Z,92.20
2019-03-26T02:32:32.331Z,92.10
2019-03-26T02:35:16.966Z,92.10
2019-03-26T02:37:34.240Z,92.20
2019-03-26T02:40:04.472Z,92.20
2019-03-26T02:42:34.656Z,92.10
2019-03-26T02:45:06.059Z,92.30
2019-03-26T02:47:36.199Z,92.50
2019-03-26T02:50:08.915Z,92.50
2019-03-26T02:52:39.101Z,92.30
2019-03-26T02:55:09.422Z,92.30
2019-03-26T02:57:39.740Z,92.40
2019-03-26T03:00:10.682Z,92.30
2019-03-26T03:02:41.108Z,92.10
2019-03-26T03:05:11.875Z,92.00
2019-03-26T03:07:41.991Z,91.90
2019-03-26T03:10:12.852Z,92.00
2019-03-26T03:12:42.986Z,92.00
2019-03-26T03:15:13.355Z,92.10
2019-03-26T03:17:43.449Z,92.10
2019-03-26T03:20:13.949Z,92.00
2019-03-26T03:22:44.012Z,91.80
2019-03-26T03:25:14.410Z,91.70
2019-03-26T03:27:46.324Z,91.80
2019-03-26T03:30:17.097Z,91.60
2019-03-26T03:32:47.327Z,91.60
2019-03-26T03:35:17.504Z,91.70
2019-03-26T03:37:47.620Z,91.80
2019-03-26T03:40:18.021Z,91.70
2019-03-26T03:42:48.271Z,91.40
2019-03-26T03:45:27.756Z,91.50
2019-03-26T03:47:58.433Z,91.40
2019-03-26T03:50:30.848Z,91.20
2019-03-26T03:53:02.685Z,91.00
2019-03-26T03:55:33.946Z,91.10
2019-03-26T03:58:04.677Z,91.50
2019-03-26T04:00:37.502Z,91.70
2019-03-26T04:03:09.811Z,91.50
2019-03-26T04:05:40.327Z,91.60
2019-03-26T04:08:11.450Z,91.30
2019-03-26T04:10:41.654Z,91.20
2019-03-26T04:13:12.507Z,91.30
2019-03-26T04:15:42.739Z,91.90
2019-03-26T04:18:13.258Z,91.70
2019-03-26T04:20:43.466Z,92.10
2019-03-26T04:23:13.534Z,92.20
2019-03-26T04:25:44.016Z,92.10
2019-03-26T04:28:14.452Z,92.10
2019-03-26T04:30:44.933Z,92.30
2019-03-26T04:33:16.441Z,91.90
2019-03-26T04:35:46.649Z,92.00
2019-03-26T04:38:17.389Z,92.50
2019-03-26T04:40:47.675Z,91.80
2019-03-26T04:43:19.218Z,92.10
2019-03-26T04:45:49.799Z,91.90
2019-03-26T04:48:20.023Z,92.10
2019-03-26T04:50:50.239Z,92.10
2019-03-26T04:53:21.176Z,92.00
2019-03-26T04:55:51.405Z,92.00
2019-03-26T04:58:21.626Z,91.90
2019-03-26T05:00:52.196Z,91.90
2019-03-26T05:03:23.095Z,92.00
2019-03-26T05:05:54.656Z,92.20
2019-03-26T05:08:25.483Z,92.10
2019-03-26T05:10:56.052Z,92.10
2019-03-26T05:13:29.511Z,92.10
2019-03-26T05:15:59.781Z,92.10
2019-03-26T05:18:30.061Z,91.90
2019-03-26T05:21:00.428Z,92.10
2019-03-26T05:23:31.903Z,92.10
2019-03-26T05:26:02.480Z,92.10
2019-03-26T05:28:33.597Z,92.10
2019-03-26T05:31:04.047Z,91.70
2019-03-26T05:33:35.017Z,91.80
2019-03-26T05:36:06.945Z,91.90
2019-03-26T05:38:37.211Z,91.80
2019-03-26T05:41:10.404Z,91.40
2019-03-26T05:43:42.406Z,91.40
2019-03-26T05:46:12.720Z,91.20
2019-03-26T05:48:44.420Z,91.10
2019-03-26T05:51:14.704Z,91.20
2019-03-26T05:53:45.596Z,91.00
2019-03-26T05:56:16.143Z,91.00
2019-03-26T05:58:46.470Z,90.60
2019-03-26T06:01:16.896Z,90.80
2019-03-26T06:03:49.268Z,90.30
2019-03-26T06:06:19.591Z,90.10
2019-03-26T06:08:51.077Z,90.00
2019-03-26T06:11:21.370Z,90.00
2019-03-26T06:13:52.205Z,89.80
2019-03-26T06:16:22.773Z,89.90
2019-03-26T06:18:53.181Z,89.80
2019-03-26T06:21:24.627Z,90.10
2019-03-26T06:23:55.757Z,89.60
2019-03-26T06:26:26.541Z,89.30
2019-03-26T06:29:01.096Z,88.70
2019-03-26T06:31:30.148Z,89.10
2019-03-26T06:34:01.185Z,88.20
2019-03-26T06:36:31.964Z,88.60
2019-03-26T06:39:02.240Z,88.20
2019-03-26T06:41:33.805Z,88.20
2019-03-26T06:44:04.845Z,88.30
2019-03-26T06:46:36.040Z,88.40
2019-03-26T06:49:06.558Z,87.50
2019-03-26T06:51:37.002Z,87.40
2019-03-26T06:54:07.778Z,86.90
2019-03-26T06:56:38.424Z,86.70
2019-03-26T06:59:09.010Z,85.30
2019-03-26T07:01:40.179Z,84.90
2019-03-26T07:04:10.658Z,85.60
2019-03-26T07:06:40.982Z,85.50
2019-03-26T07:09:11.951Z,85.60
2019-03-26T07:11:44.295Z,85.60
2019-03-26T07:14:17.677Z,86.20
2019-03-26T07:16:49.485Z,85.40
2019-03-26T07:19:19.891Z,86.00
2019-03-26T07:21:50.218Z,85.30
2019-03-26T07:24:22.682Z,86.80
2019-03-26T07:26:53.656Z,86.40
2019-03-26T07:29:24.699Z,86.30
2019-03-26T07:31:56.055Z,84.70
2019-03-26T07:34:26.887Z,84.20
2019-03-26T07:36:57.451Z,84.70
2019-03-26T07:39:28.420Z,83.70
2019-03-26T07:41:58.802Z,82.70
2019-03-26T07:44:29.674Z,82.50
2019-03-26T07:46:59.982Z,82.30
2019-03-26T07:49:30.469Z,82.30
2019-03-26T07:52:01.157Z,82.30
2019-03-26T07:54:32.691Z,80.60
2019-03-26T07:57:04.473Z,80.30
2019-03-26T07:59:34.782Z,79.70
2019-03-26T08:02:05.021Z,80.80
2019-03-26T08:04:35.959Z,80.30
2019-03-26T08:07:06.655Z,80.80
2019-03-26T08:09:37.259Z,79.80
2019-03-26T08:12:08.010Z,79.90
2019-03-26T08:14:38.618Z,79.60
2019-03-26T08:17:09.583Z,79.40
2019-03-26T08:19:39.775Z,78.50
2019-03-26T08:22:10.081Z,77.30
2019-03-26T08:24:40.381Z,78.00
2019-03-26T08:27:10.719Z,77.40
2019-03-26T08:29:41.434Z,76.70
2019-03-26T08:32:11.980Z,76.10
2019-03-26T08:34:42.771Z,75.60
2019-03-26T08:37:13.197Z,74.70
2019-03-26T08:39:43.762Z,73.90
2019-03-26T08:42:13.981Z,73.90
2019-03-26T08:44:44.239Z,72.40
2019-03-26T08:47:14.597Z,71.10
2019-03-26T08:49:44.911Z,69.00
2019-03-26T08:52:15.352Z,65.40
2019-03-26T08:54:46.823Z,66.10
2019-03-26T08:57:17.213Z,64.00
2019-03-26T08:59:47.651Z,64.70
2019-03-26T09:02:18.358Z,62.80
2019-03-26T09:04:49.461Z,63.30
2019-03-26T09:07:20.125Z,59.90
2019-03-26T09:09:50.987Z,59.30
2019-03-26T09:12:21.353Z,58.20
2019-03-26T09:14:51.692Z,56.30
2019-03-26T09:17:22.209Z,54.70
2019-03-26T09:19:53.483Z,53.10
2019-03-26T09:22:24.156Z,52.50
2019-03-26T09:24:54.508Z,51.70
2019-03-26T09:27:26.264Z,51.80
2019-03-26T09:29:56.816Z,51.20
2019-03-26T09:32:27.327Z,50.10
2019-03-26T09:34:57.504Z,49.00
2019-03-26T09:37:27.839Z,49.40
2019-03-26T09:39:58.049Z,48.50
2019-03-26T09:42:28.539Z,48.30
2019-03-26T09:44:59.288Z,48.70
2019-03-26T09:47:29.797Z,47.40
2019-03-26T09:50:00.440Z,47.90
2019-03-26T09:52:31.391Z,45.70
2019-03-26T09:55:01.763Z,43.30
2019-03-26T09:57:32.035Z,42.40
2019-03-26T10:00:02.376Z,40.70
2019-03-26T10:02:32.897Z,39.40
2019-03-26T10:05:03.147Z,39.60
2019-03-26T10:07:33.720Z,37.70
2019-03-26T10:10:04.556Z,38.10
2019-03-26T10:12:35.797Z,38.30
2019-03-26T10:15:06.552Z,39.20
2019-03-26T10:17:36.900Z,41.10
2019-03-26T10:20:08.102Z,44.00
2019-03-26T10:22:39.519Z,44.80
2019-03-26T10:25:11.569Z,44.40
2019-03-26T10:27:41.846Z,46.60
2019-03-26T10:30:14.543Z,46.20
2019-03-26T10:32:45.077Z,44.40
2019-03-26T10:35:17.764Z,40.50
2019-03-26T10:37:48.521Z,39.20
2019-03-26T10:40:30.330Z,34.50
2019-03-26T10:43:00.805Z,29.50
2019-03-26T10:45:32.570Z,26.60
2019-03-26T10:48:03.776Z,23.70
2019-03-26T10:50:34.741Z,27.10
2019-03-26T10:53:05.603Z,28.20
2019-03-26T10:55:35.893Z,26.70
2019-03-26T10:58:07.572Z,27.60
2019-03-26T11:00:37.910Z,27.40
2019-03-26T11:03:08.863Z,29.90
2019-03-26T11:05:39.155Z,31.80
2019-03-26T11:08:10.289Z,31.30
2019-03-26T11:10:40.652Z,32.00
2019-03-26T11:13:11.709Z,33.70
2019-03-26T11:15:42.260Z,34.70
2019-03-26T11:18:13.344Z,35.30
2019-03-26T11:20:43.894Z,33.40
2019-03-26T11:23:14.913Z,33.60
2019-03-26T11:25:45.478Z,34.40
2019-03-26T11:28:15.965Z,34.60
2019-03-26T11:30:46.373Z,35.30
2019-03-26T11:33:17.449Z,35.90
2019-03-26T11:35:47.666Z,35.80
2019-03-26T11:38:18.625Z,36.70
2019-03-26T11:40:49.375Z,36.80
2019-03-26T11:43:20.464Z,36.60
2019-03-26T11:45:51.316Z,37.00
2019-03-26T11:48:21.623Z,37.70
2019-03-26T11:50:52.108Z,39.00
2019-03-26T11:53:26.499Z,39.10
2019-03-26T11:55:57.875Z,39.20
2019-03-26T11:58:30.809Z,38.30
2019-03-26T12:01:01.439Z,37.70
2019-03-26T12:03:32.296Z,38.60
2019-03-26T12:06:03.437Z,39.80
2019-03-26T12:08:34.515Z,39.60
2019-03-26T12:11:05.444Z,40.40
2019-03-26T12:13:36.749Z,40.40
2019-03-26T12:16:07.322Z,40.00
2019-03-26T12:18:40.962Z,39.20
2019-03-26T12:21:11.442Z,39.10
2019-03-26T12:23:45.562Z,38.50
2019-03-26T12:26:16.672Z,38.70
2019-03-26T12:28:46.788Z,38.50
2019-03-26T12:31:17.396Z,40.00
2019-03-26T12:33:48.508Z,39.90
2019-03-26T12:36:19.721Z,40.10
2019-03-26T12:38:51.063Z,40.10
2019-03-26T12:41:22.094Z,39.00
2019-03-26T12:43:53.421Z,40.40
2019-03-26T12:46:24.352Z,40.80
2019-03-26T12:48:56.294Z,40.80
2019-03-26T12:51:27.055Z,41.80
2019-03-26T12:53:58.117Z,41.50
2019-03-26T12:56:29.138Z,41.90
2019-03-26T12:59:00.055Z,40.60
2019-03-26T13:01:30.402Z,41.20
2019-03-26T13:04:12.006Z,39.70
2019-03-26T13:06:33.234Z,40.40
2019-03-26T13:09:04.429Z,39.40
2019-03-26T13:11:34.723Z,39.00
2019-03-26T13:14:05.876Z,38.10
2019-03-26T13:16:37.029Z,38.40
2019-03-26T13:19:08.276Z,38.50
2019-03-26T13:21:38.701Z,38.70
2019-03-26T13:24:11.410Z,37.20
2019-03-26T13:26:41.701Z,35.80
2019-03-26T13:29:11.947Z,37.10
2019-03-26T13:31:43.168Z,37.50
2019-03-26T13:34:13.795Z,36.10
2019-03-26T13:36:44.701Z,36.90
2019-03-26T13:39:14.919Z,36.80
2019-03-26T13:41:45.227Z,36.70
2019-03-26T13:44:15.502Z,37.70
2019-03-26T13:46:46.340Z,38.70
2019-03-26T13:49:17.282Z,38.40
2019-03-26T13:51:47.650Z,38.00
2019-03-26T13:54:18.704Z,38.90
2019-03-26T13:56:49.841Z,39.30
2019-03-26T13:59:20.563Z,39.40
2019-03-26T14:01:51.534Z,38.80
2019-03-26T14:04:22.098Z,37.80
2019-03-26T14:06:53.457Z,38.40
2019-03-26T14:09:27.051Z,39.70
2019-03-26T14:11:57.767Z,39.40
2019-03-26T14:14:28.791Z,39.70
2019-03-26T14:16:59.646Z,39.30
2019-03-26T14:19:33.523Z,40.20
2019-03-26T14:22:05.486Z,38.40
2019-03-26T14:24:35.682Z,39.30
2019-03-26T14:27:06.326Z,39.00
2019-03-26T14:29:36.603Z,39.60
2019-03-26T14:32:08.049Z,39.60
2019-03-26T14:34:39.433Z,40.40
2019-03-26T14:37:10.267Z,40.20
2019-03-26T14:39:41.123Z,40.80
2019-03-26T14:42:12.306Z,40.70
2019-03-26T14:44:42.963Z,41.00
2019-03-26T14:47:14.121Z,40.70
2019-03-26T14:49:47.522Z,40.10
2019-03-26T14:52:17.751Z,40.90
2019-03-26T14:54:48.437Z,41.60
2019-03-26T14:57:19.387Z,41.60
2019-03-26T14:59:50.620Z,41.20
2019-03-26T15:02:21.057Z,41.80
2019-03-26T15:04:52.029Z,41.60
2019-03-26T15:07:22.671Z,42.60
2019-03-26T15:09:53.298Z,42.00
2019-03-26T15:12:23.976Z,41.70
2019-03-26T15:14:54.488Z,42.20
2019-03-26T15:17:25.565Z,42.20
2019-03-26T15:19:55.783Z,42.20
2019-03-26T15:22:26.463Z,41.60
2019-03-26T15:24:59.346Z,41.70
2019-03-26T15:27:29.721Z,41.30
2019-03-26T15:30:00.032Z,40.80
2019-03-26T15:32:31.133Z,39.00
2019-03-26T15:35:03.612Z,39.10
2019-03-26T15:37:34.919Z,39.00
2019-03-26T15:40:06.207Z,39.10
2019-03-26T15:42:36.944Z,38.90
2019-03-26T15:45:09.741Z,39.50
2019-03-26T15:47:40.655Z,39.70
2019-03-26T15:50:15.905Z,41.20
2019-03-26T15:52:46.926Z,40.60
2019-03-26T15:55:17.914Z,41.10
2019-03-26T15:57:48.660Z,40.80
2019-03-26T16:00:22.673Z,42.10
2019-03-26T16:02:53.608Z,41.80
2019-03-26T16:05:23.982Z,41.90
2019-03-26T16:07:54.798Z,43.10
2019-03-26T16:10:25.216Z,42.00
2019-03-26T16:12:55.736Z,42.20
2019-03-26T16:15:29.316Z,42.30
2019-03-26T16:18:05.694Z,42.60
2019-03-26T16:20:36.547Z,42.60
2019-03-26T16:23:08.582Z,42.70
2019-03-26T16:25:39.431Z,42.60
2019-03-26T16:28:11.310Z,42.40
2019-03-26T16:30:41.486Z,43.00
2019-03-26T16:33:12.668Z,43.60
2019-03-26T16:35:43.100Z,44.00
2019-03-26T16:38:13.999Z,45.00
2019-03-26T16:40:44.488Z,45.10
2019-03-26T16:43:15.577Z,45.50
2019-03-26T16:45:45.957Z,45.50
2019-03-26T16:48:16.275Z,45.60
2019-03-26T16:50:47.018Z,45.60
2019-03-26T16:53:17.499Z,46.20
2019-03-26T16:55:47.805Z,45.90
2019-03-26T16:58:18.043Z,45.90
2019-03-26T17:00:48.948Z,46.70
2019-03-26T17:03:30.748Z,47.10
2019-03-26T17:05:52.250Z,45.50
2019-03-26T17:08:22.826Z,45.60
2019-03-26T17:10:53.532Z,46.00
2019-03-26T17:13:25.426Z,46.10
2019-03-26T17:15:55.840Z,46.60
2019-03-26T17:18:26.803Z,46.90
2019-03-26T17:20:57.283Z,47.00
2019-03-26T17:23:27.756Z,47.20
2019-03-26T17:25:57.953Z,47.70
2019-03-26T17:28:28.302Z,46.70
2019-03-26T17:30:58.833Z,46.80
2019-03-26T17:33:31.808Z,47.20
2019-03-26T17:36:02.054Z,46.80
2019-03-26T17:38:33.760Z,47.50
2019-03-26T17:41:04.686Z,47.60
2019-03-26T17:43:37.044Z,47.90
2019-03-26T17:46:07.775Z,47.60
2019-03-26T17:48:38.070Z,47.40
2019-03-26T17:51:08.595Z,47.60
2019-03-26T17:53:39.993Z,47.70
2019-03-26T17:56:10.409Z,48.00
2019-03-26T17:58:43.099Z,48.80
2019-03-26T18:01:13.672Z,49.40
2019-03-26T18:03:44.542Z,48.70
2019-03-26T18:06:14.985Z,48.70
2019-03-26T18:08:45.215Z,49.20
2019-03-26T18:11:15.501Z,49.30
2019-03-26T18:13:49.607Z,48.70
2019-03-26T18:16:19.992Z,49.50
2019-03-26T18:18:50.657Z,48.90
2019-03-26T18:21:20.992Z,48.50
2019-03-26T18:23:51.816Z,48.70
2019-03-26T18:26:22.039Z,48.80
2019-03-26T18:28:55.357Z,48.50
2019-03-26T18:31:24.949Z,49.70
2019-03-26T18:33:56.796Z,48.80
2019-03-26T18:36:27.136Z,49.20
2019-03-26T18:38:58.088Z,49.00
2019-03-26T18:41:29.008Z,48.80
2019-03-26T18:43:59.903Z,48.70
2019-03-26T18:46:30.344Z,49.10
2019-03-26T18:49:01.416Z,49.20
2019-03-26T18:54:10.728Z,48.90
2019-03-26T18:56:47.099Z,49.60
2019-03-26T18:59:18.360Z,50.30
2019-03-26T19:01:54.747Z,50.20
2019-03-26T19:04:30.585Z,51.00
2019-03-26T19:07:02.635Z,50.60
2019-03-26T19:09:37.393Z,51.00
2019-03-26T19:12:12.235Z,50.90
2019-03-26T19:14:47.559Z,51.20
2019-03-26T19:17:22.457Z,51.00
2019-03-26T19:19:58.351Z,50.20
2019-03-26T19:25:05.011Z,50.70
2019-03-26T19:27:38.461Z,50.60
2019-03-26T19:30:09.502Z,50.80
2019-03-26T19:32:41.033Z,51.10
2019-03-26T19:35:11.555Z,51.00
2019-03-26T19:37:41.732Z,51.10
2019-03-26T19:40:13.659Z,51.40
2019-03-26T19:42:45.396Z,51.80
2019-03-26T19:45:16.306Z,51.00
2019-03-26T19:47:46.916Z,52.00
2019-03-26T19:50:18.437Z,51.60
2019-03-26T19:52:50.286Z,51.50
2019-03-26T19:55:20.551Z,51.80
2019-03-26T19:57:51.246Z,52.10
2019-03-26T20:00:26.729Z,51.70
2019-03-26T20:02:56.204Z,51.90
2019-03-26T20:05:27.179Z,51.40
2019-03-26T20:07:57.600Z,51.50
2019-03-26T20:10:28.028Z,51.30
2019-03-26T20:12:58.456Z,51.80
2019-03-26T20:15:29.140Z,51.90
2019-03-26T20:18:00.091Z,52.00
2019-03-26T20:20:31.478Z,51.70
2019-03-26T20:23:02.893Z,51.90
2019-03-26T20:25:33.962Z,52.00
2019-03-26T20:28:07.378Z,51.40
2019-03-26T20:30:37.690Z,51.80
2019-03-26T20:33:11.154Z,51.50
2019-03-26T20:35:41.576Z,51.70
2019-03-26T20:38:12.733Z,52.10
2019-03-26T20:40:42.958Z,53.00
2019-03-26T20:43:13.892Z,53.00
2019-03-26T20:45:44.115Z,53.70
2019-03-26T20:48:18.872Z,53.60
2019-03-26T20:50:57.360Z,54.30
2019-03-26T20:53:28.507Z,54.00
2019-03-26T20:56:07.489Z,55.00
2019-03-26T20:58:38.554Z,54.60
2019-03-26T21:01:08.744Z,55.00
2019-03-26T21:03:39.121Z,54.90
2019-03-26T21:06:09.448Z,55.10
2019-03-26T21:08:42.665Z,55.20
2019-03-26T21:11:14.933Z,55.10
2019-03-26T21:13:50.584Z,55.30
2019-03-26T21:16:17.292Z,55.60
2019-03-26T21:18:48.284Z,56.50
2019-03-26T21:21:18.451Z,56.50
2019-03-26T21:23:49.431Z,57.00
2019-03-26T21:26:19.737Z,56.50
2019-03-26T21:28:50.096Z,56.80
2019-03-26T21:31:20.320Z,56.50
2019-03-26T21:33:51.321Z,57.30
2019-03-26T21:36:21.516Z,57.50
2019-03-26T21:38:52.454Z,57.70
2019-03-26T21:41:22.680Z,58.40
2019-03-26T21:44:03.662Z,59.40
2019-03-26T21:46:25.864Z,58.20
2019-03-26T21:48:56.210Z,58.30
2019-03-26T21:51:26.537Z,59.00
2019-03-26T21:53:57.541Z,58.80
2019-03-26T21:56:28.001Z,59.10
2019-03-26T21:58:59.048Z,59.10
2019-03-26T22:01:29.477Z,59.70
2019-03-26T22:03:59.909Z,59.50
2019-03-26T22:06:30.191Z,59.50
2019-03-26T22:09:01.223Z,59.80
2019-03-26T22:11:31.598Z,59.90
2019-03-26T22:14:02.288Z,60.30
2019-03-26T22:16:32.635Z,60.20
2019-03-26T22:19:03.534Z,60.50
2019-03-26T22:21:35.974Z,61.20
2019-03-26T22:24:08.562Z,61.20
2019-03-26T22:26:38.794Z,61.60
2019-03-26T22:29:09.485Z,61.60
2019-03-26T22:31:39.739Z,61.80
2019-03-26T22:34:10.744Z,61.80
2019-03-26T22:36:41.055Z,61.80
2019-03-26T22:39:11.474Z,62.00
2019-03-26T22:41:41.830Z,62.20
2019-03-26T22:44:13.060Z,62.70
2019-03-26T22:46:43.263Z,63.10
2019-03-26T22:49:13.512Z,63.40
2019-03-26T22:51:44.190Z,63.40
2019-03-26T22:54:14.370Z,63.50
2019-03-26T22:56:45.911Z,64.10
2019-03-26T22:59:16.143Z,64.30
2019-03-26T23:20:01.343Z,64.70
2019-03-26T23:22:31.611Z,64.90
2019-03-26T23:25:02.704Z,64.60
2019-03-26T23:27:32.930Z,65.00
2019-03-26T23:30:03.125Z,64.80
2019-03-26T23:32:33.590Z,64.90
2019-03-26T23:35:03.865Z,66.00
2019-03-26T23:37:34.439Z,65.30
2019-03-26T23:40:04.868Z,65.90
2019-03-26T23:42:35.317Z,66.00
2019-03-26T23:45:06.621Z,65.40
2019-03-26T23:47:36.927Z,65.30
2019-03-26T23:50:08.301Z,65.80
2019-03-26T23:52:38.562Z,65.40
2019-03-26T23:55:10.338Z,65.90
2019-03-26T23:57:40.610Z,65.60
